Time;durP1;ratioP1;P1;durP2;ratioP2;P2;SDS_P1;SDS_P2;PMS_P1;PMS_P2;Temp;Humidity;BMP_temperature;BMP_pressure;BME280_temperature;BME280_humidity;BME280_pressure;Samples;Min_cycle;Max_cycle;Signal;HPM_P1;HPM_P2
2022/05/01 00:01:42;;;;;;;7.07;4.90;;;18.90;38.20;;;;;;5063943;28;20469;-83
2022/05/01 00:04:12;;;;;;;6.60;5.40;;;18.90;38.40;;;;;;5060962;28;20514;-82
2022/05/01 00:06:40;;;;;;;5.17;4.77;;;18.80;39.00;;;;;;5064064;28;20443;-82
2022/05/01 00:09:08;;;;;;;5.73;5.07;;;18.80;38.30;;;;;;5063351;28;20490;-83
2022/05/01 00:11:36;;;;;;;5.00;4.50;;;18.80;38.50;;;;;;5064003;28;20478;-84
2022/05/01 00:14:05;;;;;;;5.50;5.00;;;18.70;38.40;;;;;;5064467;28;20554;-83
2022/05/01 00:16:33;;;;;;;6.23;5.00;;;18.70;38.40;;;;;;5063569;28;20477;-82
2022/05/01 00:19:01;;;;;;;6.17;5.00;;;18.70;38.50;;;;;;5064517;28;20474;-82
2022/05/01 00:21:30;;;;;;;5.43;4.93;;;18.70;38.70;;;;;;5062218;28;20522;-82
2022/05/01 00:23:58;;;;;;;6.00;5.40;;;18.70;38.60;;;;;;5062891;28;20442;-82
2022/05/01 00:26:26;;;;;;;6.10;5.40;;;18.60;38.70;;;;;;5063525;28;20462;-83
2022/05/01 00:28:55;;;;;;;7.10;4.97;;;18.60;38.50;;;;;;5062892;28;20509;-83
2022/05/01 00:31:23;;;;;;;5.80;5.20;;;18.60;38.70;;;;;;5062783;28;20446;-83
2022/05/01 00:36:38;;;;;;;7.00;5.00;;;18.50;38.70;;;;;;5061932;28;20529;-82
2022/05/01 00:39:06;;;;;;;5.70;5.20;;;18.50;38.70;;;;;;5053260;28;20504;-82
2022/05/01 00:41:35;;;;;;;4.80;4.40;;;18.50;38.90;;;;;;5054681;28;20470;-83
2022/05/01 00:44:04;;;;;;;7.37;5.30;;;18.50;38.90;;;;;;5063126;28;20438;-82
2022/05/01 00:46:33;;;;;;;5.97;5.37;;;18.50;39.00;;;;;;5064276;28;20446;-84
2022/05/01 00:49:02;;;;;;;5.10;4.53;;;18.40;38.90;;;;;;5061634;28;20470;-82
2022/05/01 00:51:31;;;;;;;5.70;4.60;;;18.40;39.00;;;;;;5061751;28;20443;-82
2022/05/01 00:54:00;;;;;;;5.53;4.70;;;18.30;39.10;;;;;;5059470;28;20467;-81
2022/05/01 00:56:30;;;;;;;8.93;5.50;;;18.40;39.10;;;;;;5055845;28;20493;-82
2022/05/01 00:58:57;;;;;;;6.43;5.00;;;18.30;39.00;;;;;;5061503;28;20646;-81
2022/05/01 01:01:25;;;;;;;5.87;5.27;;;18.30;39.00;;;;;;5061777;28;20450;-82
2022/05/01 01:03:54;;;;;;;5.30;4.90;;;18.30;39.10;;;;;;5062524;28;20454;-82
2022/05/01 01:06:23;;;;;;;5.43;4.90;;;18.30;39.20;;;;;;5062999;28;20449;-82
2022/05/01 01:08:51;;;;;;;7.17;5.40;;;18.20;39.20;;;;;;5062753;28;20549;-83
2022/05/01 01:11:20;;;;;;;6.03;4.97;;;18.20;39.10;;;;;;5063070;28;20521;-83
2022/05/01 01:13:47;;;;;;;5.03;4.63;;;18.20;39.20;;;;;;5062753;28;21124;-82
2022/05/01 01:16:15;;;;;;;5.53;5.10;;;18.20;39.30;;;;;;5048651;28;20440;-83
2022/05/01 01:18:43;;;;;;;5.53;5.03;;;18.20;39.30;;;;;;5041402;28;20471;-82
2022/05/01 01:21:13;;;;;;;7.93;5.70;;;18.10;39.30;;;;;;5043216;28;20443;-84
2022/05/01 01:23:41;;;;;;;5.93;5.33;;;18.20;39.40;;;;;;5043584;28;20530;-84
2022/05/01 01:26:10;;;;;;;5.53;5.03;;;18.20;39.40;;;;;;5043490;28;20436;-84
2022/05/01 01:28:39;;;;;;;6.60;5.27;;;18.10;39.30;;;;;;5043413;28;20456;-84
2022/05/01 01:33:54;;;;;;;5.30;4.80;;;18.00;39.50;;;;;;5063059;28;20462;-83
2022/05/01 01:36:25;;;;;;;7.30;5.50;;;18.00;39.50;;;;;;5064497;28;20465;-83
2022/05/01 01:38:53;;;;;;;6.30;5.20;;;18.00;39.40;;;;;;5063875;28;20470;-83
2022/05/01 01:41:23;;;;;;;5.53;4.90;;;18.00;39.40;;;;;;5063741;28;20447;-83
2022/05/01 01:43:50;;;;;;;4.63;4.30;;;18.00;39.50;;;;;;5064076;28;20445;-84
2022/05/01 01:46:18;;;;;;;5.23;4.83;;;17.90;39.50;;;;;;5064481;28;20457;-83
2022/05/01 01:48:47;;;;;;;6.53;4.97;;;18.00;39.60;;;;;;5055612;28;20508;-83
2022/05/01 01:51:15;;;;;;;6.57;5.07;;;18.00;39.60;;;;;;5064322;28;20439;-84
2022/05/01 01:53:44;;;;;;;5.43;4.80;;;18.00;39.60;;;;;;5065090;28;20500;-83
2022/05/01 01:56:12;;;;;;;5.63;4.97;;;18.00;39.60;;;;;;5065458;28;20493;-83
2022/05/01 01:58:41;;;;;;;5.60;5.00;;;17.90;39.60;;;;;;5064831;28;20465;-84
2022/05/01 02:01:10;;;;;;;5.70;5.10;;;17.90;39.60;;;;;;5065315;28;20431;-84
2022/05/01 02:03:38;;;;;;;4.70;4.30;;;17.90;39.70;;;;;;5064350;28;20449;-84
2022/05/01 02:06:06;;;;;;;5.80;5.20;;;17.90;39.60;;;;;;5059260;28;20458;-82
2022/05/01 02:08:35;;;;;;;4.93;4.53;;;17.90;39.70;;;;;;5055704;28;20509;-83
2022/05/01 02:11:04;;;;;;;5.40;4.90;;;17.90;39.70;;;;;;5044136;28;20443;-83
2022/05/01 02:13:35;;;;;;;4.93;4.53;;;17.90;39.70;;;;;;5044565;28;20937;-83
2022/05/01 02:16:03;;;;;;;5.60;5.00;;;17.90;39.80;;;;;;5044834;28;20474;-84
2022/05/01 02:18:31;;;;;;;5.27;4.87;;;17.90;39.80;;;;;;5044143;28;20463;-83
2022/05/01 02:23:45;;;;;;;5.93;4.80;;;17.80;39.70;;;;;;5046756;28;20470;-83
2022/05/01 02:26:14;;;;;;;9.67;5.70;;;17.90;39.80;;;;;;5048570;28;20439;-83
2022/05/01 02:28:42;;;;;;;5.50;4.90;;;17.90;40.00;;;;;;5042599;28;20501;-84
2022/05/01 02:31:11;;;;;;;5.40;4.63;;;17.90;39.80;;;;;;5041867;28;20454;-83
2022/05/01 02:33:40;;;;;;;6.30;5.30;;;17.80;39.80;;;;;;5041436;28;20498;-82
2022/05/01 02:36:08;;;;;;;5.30;4.80;;;17.80;39.80;;;;;;5041401;28;20470;-84
2022/05/01 02:38:36;;;;;;;6.33;5.07;;;17.80;39.90;;;;;;5041871;28;20474;-83
2022/05/01 02:41:04;;;;;;;5.60;5.10;;;17.80;40.00;;;;;;5045049;28;20455;-82
2022/05/01 02:43:33;;;;;;;5.73;5.13;;;17.80;40.00;;;;;;5068029;28;20459;-84
2022/05/01 02:46:01;;;;;;;5.40;4.90;;;17.80;39.90;;;;;;5068635;28;20474;-84
2022/05/01 02:48:29;;;;;;;5.30;4.80;;;17.80;40.10;;;;;;5068999;28;20467;-84
2022/05/01 02:50:57;;;;;;;5.70;5.10;;;17.80;40.00;;;;;;5069177;28;20435;-83
2022/05/01 02:53:25;;;;;;;6.77;4.67;;;17.80;39.90;;;;;;5068888;28;20462;-84
2022/05/01 02:55:53;;;;;;;6.07;5.30;;;17.80;40.00;;;;;;5069255;28;20497;-84
2022/05/01 02:58:21;;;;;;;6.90;5.10;;;17.80;39.90;;;;;;5066547;28;20481;-83
2022/05/01 03:00:50;;;;;;;5.13;4.63;;;17.70;40.00;;;;;;5068924;28;20445;-83
2022/05/01 03:03:18;;;;;;;5.03;4.63;;;17.70;40.20;;;;;;5066797;28;20454;-84
2022/05/01 03:05:47;;;;;;;5.90;5.03;;;17.80;40.20;;;;;;5067469;28;20470;-84
2022/05/01 03:08:15;;;;;;;6.60;5.07;;;17.80;40.20;;;;;;5067950;28;20446;-84
2022/05/01 03:10:43;;;;;;;5.70;4.80;;;17.80;40.20;;;;;;5068097;28;20530;-85
2022/05/01 03:13:11;;;;;;;5.30;4.90;;;17.70;40.20;;;;;;5067548;28;20450;-84
2022/05/01 03:15:39;;;;;;;7.67;5.20;;;17.70;40.20;;;;;;5057397;28;20477;-83
2022/05/01 03:23:40;;;;;;;5.37;4.87;;;17.70;40.20;;;;;;5067733;28;20529;-84
2022/05/01 03:26:08;;;;;;;5.40;4.93;;;17.70;40.30;;;;;;5067989;28;20438;-84
2022/05/01 03:28:36;;;;;;;5.40;4.93;;;17.70;40.30;;;;;;5066614;28;20470;-86
2022/05/01 03:31:08;;;;;;;5.70;5.00;;;17.70;40.50;;;;;;5067632;28;20447;-84
2022/05/01 03:33:38;;;;;;;5.60;5.10;;;17.70;40.40;;;;;;5060934;28;20458;-83
2022/05/01 03:36:07;;;;;;;6.17;4.80;;;17.70;40.30;;;;;;5067455;28;20490;-83
2022/05/01 03:38:36;;;;;;;5.17;4.60;;;17.70;40.40;;;;;;5066321;28;20494;-84
2022/05/01 03:41:05;;;;;;;5.87;5.37;;;17.70;40.40;;;;;;5066173;28;20427;-84
2022/05/01 03:43:33;;;;;;;5.13;4.63;;;17.70;40.50;;;;;;5065542;28;20529;-83
2022/05/01 03:46:01;;;;;;;5.60;5.10;;;17.70;40.60;;;;;;5065353;28;20461;-84
2022/05/01 03:48:29;;;;;;;5.50;5.10;;;17.60;40.40;;;;;;5063870;28;20446;-83
2022/05/01 03:50:58;;;;;;;5.30;4.80;;;17.60;40.50;;;;;;5061449;28;20455;-83
2022/05/01 03:53:26;;;;;;;5.83;5.23;;;17.70;40.70;;;;;;5045503;28;20483;-84
2022/05/01 03:55:54;;;;;;;5.10;4.60;;;17.70;40.60;;;;;;5044598;28;20497;-84
2022/05/01 03:58:22;;;;;;;4.47;4.07;;;17.70;40.60;;;;;;5044529;28;20452;-84
2022/05/01 04:00:50;;;;;;;5.60;5.10;;;17.70;40.60;;;;;;5045528;28;20463;-83
2022/05/01 04:03:18;;;;;;;4.70;4.30;;;17.70;40.60;;;;;;5045882;28;20510;-84
2022/05/01 04:05:46;;;;;;;6.80;5.00;;;17.70;40.70;;;;;;5046317;28;20439;-84
2022/05/01 04:08:16;;;;;;;5.00;4.50;;;17.70;40.60;;;;;;5061237;28;20484;-84
2022/05/01 04:10:44;;;;;;;4.70;4.30;;;17.70;40.60;;;;;;5065064;28;20469;-83
2022/05/01 04:13:12;;;;;;;5.13;4.63;;;17.70;40.60;;;;;;5065486;28;20443;-84
2022/05/01 04:15:41;;;;;;;5.00;4.50;;;17.70;40.70;;;;;;5065419;28;20477;-84
2022/05/01 04:18:09;;;;;;;5.47;4.70;;;17.60;40.70;;;;;;5065801;28;20427;-83
2022/05/01 04:20:38;;;;;;;4.87;4.47;;;17.70;40.90;;;;;;5065203;28;20430;-84
2022/05/01 04:23:07;;;;;;;4.97;4.57;;;17.70;40.70;;;;;;5064950;28;20450;-83
2022/05/01 04:25:36;;;;;;;5.27;4.70;;;17.70;40.60;;;;;;5062521;28;20493;-83
2022/05/01 04:28:05;;;;;;;5.00;4.57;;;17.70;40.70;;;;;;5064434;28;20442;-83
2022/05/01 04:30:33;;;;;;;4.90;4.50;;;17.70;40.70;;;;;;5064761;28;20439;-84
2022/05/01 04:33:02;;;;;;;5.17;4.67;;;17.70;40.60;;;;;;5064905;28;20479;-81
2022/05/01 04:35:32;;;;;;;4.50;4.10;;;17.70;40.60;;;;;;5065635;28;20474;-84
2022/05/01 04:38:00;;;;;;;5.67;5.10;;;17.70;40.70;;;;;;5065521;28;20443;-84
2022/05/01 04:40:29;;;;;;;4.77;4.37;;;17.70;40.70;;;;;;5065296;28;20447;-83
2022/05/01 04:43:06;;;;;;;5.40;4.50;;;17.70;40.80;;;;;;5059977;28;20510;-83
2022/05/01 04:45:34;;;;;;;5.80;4.60;;;17.70;40.70;;;;;;5044863;28;20447;-83
2022/05/01 04:48:03;;;;;;;5.47;4.47;;;17.70;40.60;;;;;;5044008;28;20442;-82
2022/05/01 04:50:31;;;;;;;5.80;4.90;;;17.70;40.70;;;;;;5044522;28;20499;-83
2022/05/01 04:53:01;;;;;;;5.80;4.90;;;17.80;40.80;;;;;;5044986;28;20509;-84
2022/05/01 04:55:29;;;;;;;4.90;4.50;;;17.80;40.80;;;;;;5043828;28;20440;-85
2022/05/01 04:57:58;;;;;;;5.13;4.63;;;17.80;40.60;;;;;;5043829;28;20471;-83
2022/05/01 05:00:28;;;;;;;4.97;4.50;;;17.80;40.80;;;;;;5058759;28;20493;-83
2022/05/01 05:02:56;;;;;;;4.97;4.57;;;17.80;40.60;;;;;;5061905;28;20447;-83
2022/05/01 05:05:26;;;;;;;5.73;5.20;;;17.80;40.60;;;;;;5063026;28;20447;-83
2022/05/01 05:07:54;;;;;;;5.17;4.67;;;17.80;40.70;;;;;;5063031;28;20442;-83
2022/05/01 05:10:21;;;;;;;5.03;4.60;;;17.80;40.80;;;;;;5062928;28;20500;-83
2022/05/01 05:12:50;;;;;;;4.47;4.17;;;17.80;40.70;;;;;;5063272;28;20470;-83
2022/05/01 05:15:20;;;;;;;5.40;4.90;;;17.80;40.60;;;;;;5062950;28;20447;-83
2022/05/01 05:17:50;;;;;;;4.70;4.30;;;17.80;40.70;;;;;;5060534;28;20481;-82
2022/05/01 05:20:18;;;;;;;4.47;4.07;;;17.80;40.70;;;;;;5048334;28;20487;-83
2022/05/01 05:22:47;;;;;;;4.53;4.23;;;17.80;40.70;;;;;;5043934;28;20447;-84
2022/05/01 05:25:15;;;;;;;4.90;4.50;;;17.90;40.60;;;;;;5045606;28;20443;-84
2022/05/01 05:27:43;;;;;;;5.07;4.57;;;17.90;40.70;;;;;;5044998;28;20439;-83
2022/05/01 05:30:13;;;;;;;4.67;4.27;;;17.90;40.70;;;;;;5046227;28;20491;-84
2022/05/01 05:32:41;;;;;;;5.13;4.63;;;17.90;40.70;;;;;;5044490;28;20447;-82
2022/05/01 05:35:10;;;;;;;4.43;4.03;;;17.90;40.70;;;;;;5048547;28;20473;-84
2022/05/01 05:37:38;;;;;;;4.73;4.33;;;17.90;40.80;;;;;;5063987;28;20466;-83
2022/05/01 05:40:08;;;;;;;4.90;4.40;;;17.90;40.80;;;;;;5064511;28;20490;-83
2022/05/01 05:42:36;;;;;;;4.70;4.30;;;18.00;40.80;;;;;;5064537;28;20450;-84
2022/05/01 05:45:05;;;;;;;5.03;4.63;;;18.00;40.60;;;;;;5064092;28;20442;-84
2022/05/01 05:47:33;;;;;;;4.70;4.40;;;18.00;40.70;;;;;;5064544;28;20443;-84
2022/05/01 05:50:02;;;;;;;5.30;4.57;;;18.00;40.80;;;;;;5057990;28;20485;-83
2022/05/01 05:52:32;;;;;;;4.73;4.40;;;18.00;40.80;;;;;;5063945;28;20447;-84
2022/05/01 05:55:01;;;;;;;4.77;4.00;;;18.00;40.70;;;;;;5064431;28;20492;-83
2022/05/01 05:57:29;;;;;;;4.67;4.27;;;18.10;40.80;;;;;;5063731;28;20482;-84
2022/05/01 05:59:57;;;;;;;4.83;4.30;;;18.10;40.70;;;;;;5064876;28;20454;-84
2022/05/01 06:02:25;;;;;;;5.30;4.23;;;18.10;40.70;;;;;;5063962;28;20458;-84
2022/05/01 06:04:54;;;;;;;4.60;4.20;;;18.20;40.70;;;;;;5063534;28;20444;-84
2022/05/01 06:07:22;;;;;;;4.43;4.13;;;18.20;40.70;;;;;;5062182;28;20430;-83
2022/05/01 06:09:51;;;;;;;4.90;4.40;;;18.20;40.60;;;;;;5060727;28;20474;-83
2022/05/01 06:12:19;;;;;;;4.13;3.83;;;18.20;40.60;;;;;;5064494;28;20450;-83
2022/05/01 06:14:47;;;;;;;4.73;4.33;;;18.30;40.60;;;;;;5065534;28;20442;-84
2022/05/01 06:17:15;;;;;;;5.20;4.70;;;18.30;40.60;;;;;;5068175;28;20505;-83
2022/05/01 06:19:43;;;;;;;4.90;4.20;;;18.30;40.50;;;;;;5067579;28;20492;-84
2022/05/01 06:22:12;;;;;;;4.30;4.00;;;18.40;40.50;;;;;;5067620;28;20452;-84
2022/05/01 06:24:40;;;;;;;5.10;3.87;;;18.40;40.50;;;;;;5065397;28;20480;-83
2022/05/01 06:27:10;;;;;;;4.30;4.00;;;18.40;40.40;;;;;;5066560;28;20465;-84
2022/05/01 06:29:38;;;;;;;4.70;4.30;;;18.50;40.50;;;;;;5066909;28;20470;-83
2022/05/01 06:32:07;;;;;;;4.60;4.20;;;18.50;40.40;;;;;;5066707;28;20458;-84
2022/05/01 06:34:36;;;;;;;4.53;4.13;;;18.60;40.30;;;;;;5065036;28;20488;-83
2022/05/01 06:37:05;;;;;;;4.03;3.73;;;18.70;40.40;;;;;;5065726;28;20524;-83
2022/05/01 06:39:33;;;;;;;4.17;3.87;;;18.70;40.40;;;;;;5062562;28;20470;-82
2022/05/01 06:42:00;;;;;;;4.53;4.13;;;18.70;40.20;;;;;;5054454;28;20454;-83
2022/05/01 06:44:30;;;;;;;7.13;4.30;;;18.80;40.20;;;;;;5050717;28;20444;-83
2022/05/01 06:46:58;;;;;;;3.83;3.53;;;18.90;40.10;;;;;;5047944;28;20505;-83
2022/05/01 06:49:26;;;;;;;5.33;4.10;;;18.90;40.00;;;;;;5047377;28;20473;-83
2022/05/01 06:51:54;;;;;;;5.03;4.30;;;19.00;40.00;;;;;;5048335;28;20471;-83
2022/05/01 06:54:22;;;;;;;4.67;4.30;;;19.00;40.10;;;;;;5046427;28;20478;-83
2022/05/01 06:56:50;;;;;;;4.40;4.07;;;19.00;39.80;;;;;;5058800;28;20482;-83
2022/05/01 06:59:18;;;;;;;3.80;3.60;;;19.10;39.90;;;;;;5065798;28;20485;-82
2022/05/01 07:01:48;;;;;;;4.23;3.90;;;19.20;39.80;;;;;;5065787;28;20529;-84
2022/05/01 07:04:16;;;;;;;4.30;4.00;;;19.30;39.60;;;;;;5066430;28;20450;-85
2022/05/01 07:06:45;;;;;;;3.97;3.77;;;19.30;39.60;;;;;;5065824;28;20953;-83
2022/05/01 07:09:13;;;;;;;4.30;4.00;;;19.40;39.60;;;;;;5063393;28;20462;-81
2022/05/01 07:11:41;;;;;;;4.03;3.73;;;19.40;39.60;;;;;;5060395;28;20482;-83
2022/05/01 07:14:09;;;;;;;3.80;3.60;;;19.50;39.50;;;;;;5062884;28;20435;-82
2022/05/01 07:16:37;;;;;;;4.47;4.13;;;19.60;39.60;;;;;;5061242;28;20453;-82
2022/05/01 07:19:07;;;;;;;4.10;3.80;;;19.70;39.50;;;;;;5060745;28;20505;-82
2022/05/01 07:21:35;;;;;;;5.10;3.63;;;19.80;39.40;;;;;;5060338;28;20453;-82
2022/05/01 07:24:03;;;;;;;3.57;3.37;;;19.80;39.30;;;;;;5060954;28;20450;-82
2022/05/01 07:26:33;;;;;;;3.77;3.57;;;19.80;39.20;;;;;;5057679;28;20534;-82
2022/05/01 07:29:01;;;;;;;4.07;3.77;;;19.90;39.20;;;;;;5052608;28;20450;-82
2022/05/01 07:31:29;;;;;;;4.10;3.70;;;20.00;39.20;;;;;;5061656;28;20447;-80
2022/05/01 07:33:58;;;;;;;3.50;3.30;;;20.00;39.10;;;;;;5062247;28;20450;-83
2022/05/01 07:36:27;;;;;;;3.53;3.33;;;20.10;39.10;;;;;;5060780;28;20442;-82
2022/05/01 07:38:55;;;;;;;3.73;3.53;;;20.20;39.00;;;;;;5061036;28;20513;-82
2022/05/01 07:41:24;;;;;;;3.77;3.57;;;20.20;39.00;;;;;;5060941;28;20530;-82
2022/05/01 07:43:52;;;;;;;4.27;3.97;;;20.30;38.90;;;;;;5056765;28;20513;-82
2022/05/01 07:46:20;;;;;;;4.07;3.77;;;20.40;38.90;;;;;;5061088;28;20446;-82
2022/05/01 07:48:48;;;;;;;4.17;3.87;;;20.50;38.80;;;;;;5061080;28;20463;-83
2022/05/01 07:51:16;;;;;;;3.90;3.60;;;20.50;38.80;;;;;;5060975;28;20450;-83
2022/05/01 07:53:45;;;;;;;3.73;3.53;;;20.60;38.90;;;;;;5060904;28;20485;-82
2022/05/01 07:56:13;;;;;;;3.63;3.33;;;20.70;38.90;;;;;;5060876;28;20442;-82
2022/05/01 07:58:41;;;;;;;4.10;3.80;;;20.80;38.90;;;;;;5060134;28;20456;-82
2022/05/01 08:01:09;;;;;;;5.07;3.77;;;20.80;38.90;;;;;;5057344;28;20461;-81
2022/05/01 08:06:23;;;;;;;3.83;3.53;;;21.00;38.90;;;;;;5061122;28;20446;-82
2022/05/01 08:08:52;;;;;;;4.30;4.00;;;21.20;39.00;;;;;;5060245;28;20549;-82
2022/05/01 08:11:20;;;;;;;3.57;3.37;;;21.30;38.80;;;;;;5060619;28;20431;-82
2022/05/01 08:13:48;;;;;;;3.83;3.50;;;21.30;38.80;;;;;;5060059;28;20443;-82
2022/05/01 08:16:17;;;;;;;3.73;3.40;;;21.50;39.10;;;;;;5060651;28;20518;-82
2022/05/01 08:21:32;;;;;;;3.00;2.87;;;21.80;39.00;;;;;;5061044;28;20469;-82
2022/05/01 08:24:02;;;;;;;3.93;3.53;;;21.90;38.90;;;;;;5060690;28;20450;-83
2022/05/01 08:26:33;;;;;;;4.63;3.67;;;22.10;39.00;;;;;;5060486;28;20469;-83
2022/05/01 08:29:01;;;;;;;3.60;3.40;;;22.30;39.00;;;;;;5060565;28;20443;-82
2022/05/01 08:31:29;;;;;;;4.23;3.90;;;22.50;38.90;;;;;;5060273;28;20476;-82
2022/05/01 08:33:57;;;;;;;4.03;3.73;;;22.60;38.70;;;;;;5060038;28;20447;-82
2022/05/01 08:36:28;;;;;;;4.60;4.20;;;22.60;38.40;;;;;;5058858;28;20500;-82
2022/05/01 08:38:55;;;;;;;4.33;4.03;;;22.60;38.50;;;;;;5059190;28;20478;-82
2022/05/01 08:41:25;;;;;;;4.20;3.80;;;22.60;38.40;;;;;;5059901;28;20434;-82
2022/05/01 08:43:53;;;;;;;3.63;3.43;;;22.50;38.40;;;;;;5060530;28;20484;-82
2022/05/01 08:46:40;;;;;;;3.60;3.40;;;22.50;38.50;;;;;;5059747;28;20530;-82
2022/05/01 08:49:09;;;;;;;3.50;3.30;;;22.50;38.50;;;;;;5059617;28;20462;-83
2022/05/01 08:51:38;;;;;;;3.30;3.10;;;22.70;39.00;;;;;;5059602;28;20484;-82
2022/05/01 08:54:07;;;;;;;3.67;3.37;;;23.00;39.10;;;;;;5056497;28;20454;-82
2022/05/01 08:56:37;;;;;;;3.97;3.67;;;23.30;38.80;;;;;;5058946;28;20481;-81
2022/05/01 08:59:06;;;;;;;4.30;3.30;;;23.60;38.60;;;;;;5058233;28;20561;-82
2022/05/01 09:01:34;;;;;;;3.57;3.37;;;23.80;38.40;;;;;;5058517;28;20446;-82
2022/05/01 09:04:03;;;;;;;3.33;3.13;;;24.00;38.20;;;;;;5058246;28;20451;-82
2022/05/01 09:06:32;;;;;;;4.00;3.70;;;24.10;37.90;;;;;;5058185;28;20450;-81
2022/05/01 09:09:00;;;;;;;3.97;3.77;;;24.10;37.70;;;;;;5058608;28;20463;-81
2022/05/01 09:14:14;;;;;;;3.80;3.60;;;24.10;37.40;;;;;;5058655;28;20455;-82
2022/05/01 09:16:42;;;;;;;3.50;3.30;;;24.10;37.70;;;;;;5058692;28;20470;-81
2022/05/01 09:19:10;;;;;;;3.60;3.40;;;24.30;37.80;;;;;;5058537;28;20604;-81
2022/05/01 09:21:51;;;;;;;3.27;3.07;;;24.40;37.70;;;;;;5058189;28;20513;-82
2022/05/01 09:24:26;;;;;;;3.10;2.97;;;24.60;37.80;;;;;;5058194;28;20819;-81
2022/05/01 09:26:55;;;;;;;3.20;3.10;;;24.80;37.60;;;;;;5053938;28;20469;-82
2022/05/01 09:29:24;;;;;;;3.23;3.03;;;25.00;37.50;;;;;;5058877;28;20494;-82
2022/05/01 09:31:53;;;;;;;3.80;3.50;;;25.10;37.30;;;;;;5059191;28;20452;-82
2022/05/01 09:34:21;;;;;;;3.57;3.30;;;25.30;37.10;;;;;;5061030;28;20454;-82
2022/05/01 09:36:49;;;;;;;3.40;3.20;;;25.50;37.00;;;;;;5060386;28;20442;-83
2022/05/01 09:39:20;;;;;;;3.40;3.20;;;25.60;36.70;;;;;;5060066;28;20515;-83
2022/05/01 09:41:49;;;;;;;3.73;3.53;;;25.70;36.70;;;;;;5058303;28;20446;-82
2022/05/01 09:44:17;;;;;;;4.20;3.90;;;25.90;36.60;;;;;;5061606;28;20485;-80
2022/05/01 09:46:47;;;;;;;3.60;3.40;;;26.10;36.50;;;;;;5059763;28;20522;-83
2022/05/01 09:49:15;;;;;;;3.47;3.27;;;26.20;36.10;;;;;;5060622;28;20452;-82
2022/05/01 09:51:46;;;;;;;3.50;3.30;;;26.20;36.00;;;;;;5061019;28;20472;-82
2022/05/01 09:54:18;;;;;;;3.33;3.13;;;26.30;35.80;;;;;;5063699;28;20413;-83
2022/05/01 09:56:46;;;;;;;3.00;2.87;;;26.20;35.60;;;;;;5061340;28;20451;-83
2022/05/01 09:59:14;;;;;;;3.30;3.10;;;26.30;35.80;;;;;;5060923;28;20449;-83
2022/05/01 10:01:56;;;;;;;2.90;2.80;;;26.40;35.90;;;;;;5055265;28;20442;-83
2022/05/01 10:04:24;;;;;;;3.57;3.37;;;26.30;35.70;;;;;;5056660;28;20491;-83
2022/05/01 10:06:53;;;;;;;2.90;2.73;;;26.30;35.70;;;;;;5059908;28;20459;-83
2022/05/01 10:09:22;;;;;;;2.97;2.83;;;26.30;35.70;;;;;;5060799;28;20474;-83
2022/05/01 10:11:53;;;;;;;3.10;2.90;;;26.30;35.60;;;;;;5079007;28;20461;-81
2022/05/01 10:14:21;;;;;;;3.07;2.97;;;26.40;35.60;;;;;;5053812;28;20417;-82
2022/05/01 10:16:50;;;;;;;7.60;3.20;;;26.40;35.50;;;;;;5057821;28;20450;-82
2022/05/01 10:19:19;;;;;;;3.57;3.23;;;26.40;35.60;;;;;;5051592;28;20516;-82
2022/05/01 10:21:48;;;;;;;3.50;2.90;;;26.40;35.80;;;;;;5059283;28;20409;-81
2022/05/01 10:24:17;;;;;;;3.50;3.30;;;26.40;35.50;;;;;;5058717;28;20441;-81
2022/05/01 10:26:47;;;;;;;2.80;2.70;;;26.30;35.50;;;;;;5053624;28;20418;-82
2022/05/01 10:29:31;;;;;;;3.10;2.90;;;26.40;35.70;;;;;;5048125;28;20521;-82
2022/05/01 10:32:23;;;;;;;3.40;3.10;;;26.40;35.30;;;;;;5041318;28;20428;-81
2022/05/01 10:35:23;;;;;;;3.27;3.00;;;26.40;35.30;;;;;;5057657;28;20472;-83
2022/05/01 10:38:05;;;;;;;3.33;3.00;;;26.30;35.20;;;;;;5059437;28;20439;-82
2022/05/01 10:40:33;;;;;;;2.80;2.70;;;26.30;35.20;;;;;;5059326;28;20405;-84
2022/05/01 10:43:23;;;;;;;5.90;3.83;;;26.20;35.20;;;;;;5040107;28;20495;-79
2022/05/01 10:45:53;;;;;;;19.70;4.70;;;26.00;35.50;;;;;;5058842;28;20449;-80
2022/05/01 10:48:35;;;;;;;8.17;4.27;;;25.90;35.90;;;;;;5061735;28;20447;-79
2022/05/01 10:51:41;;;;;;;12.63;3.93;;;25.80;36.00;;;;;;5061536;28;20437;-81
2022/05/01 10:54:36;;;;;;;9.97;4.40;;;25.70;36.40;;;;;;5054158;28;20451;-79
2022/05/01 10:57:09;;;;;;;12.23;4.50;;;25.70;37.20;;;;;;5040948;28;20455;-78
2022/05/01 10:59:39;;;;;;;11.33;4.83;;;25.70;38.20;;;;;;5051523;28;20435;-77
2022/05/01 11:02:40;;;;;;;11.03;4.70;;;25.80;38.60;;;;;;5051182;28;20418;-77
2022/05/01 11:05:10;;;;;;;15.67;4.57;;;25.80;38.60;;;;;;5024937;28;20447;-80
2022/05/01 11:07:39;;;;;;;10.40;4.30;;;25.70;38.40;;;;;;5038442;28;20497;-79
2022/05/01 11:10:10;;;;;;;13.73;4.37;;;25.70;38.40;;;;;;5039794;28;20506;-80
2022/05/01 11:12:38;;;;;;;11.40;4.27;;;25.70;38.30;;;;;;5042463;28;20550;-79
2022/05/01 11:15:08;;;;;;;24.10;5.17;;;25.70;38.20;;;;;;5043377;28;20510;-80
2022/05/01 11:17:51;;;;;;;12.37;4.10;;;25.70;38.10;;;;;;5058344;28;20417;-79
2022/05/01 11:20:32;;;;;;;9.63;3.60;;;25.70;37.90;;;;;;5040977;28;20475;-78
2022/05/01 11:23:34;;;;;;;13.67;3.63;;;25.80;37.90;;;;;;5038599;28;20439;-79
2022/05/01 11:26:08;;;;;;;4.17;3.77;;;25.70;37.80;;;;;;5039831;28;20471;-79
2022/05/01 11:28:49;;;;;;;4.37;3.70;;;25.70;37.70;;;;;;5039209;28;20451;-79
2022/05/01 11:31:41;;;;;;;6.60;3.67;;;25.70;37.60;;;;;;5041531;28;20448;-79
2022/05/01 11:34:31;;;;;;;7.70;3.80;;;25.80;37.50;;;;;;5059635;28;20875;-79
2022/05/01 11:37:01;;;;;;;6.27;3.90;;;25.80;37.20;;;;;;5055004;28;20450;-81
2022/05/01 11:40:03;;;;;;;7.40;3.50;;;25.90;37.20;;;;;;5057680;28;20471;-79
2022/05/01 11:42:36;;;;;;;5.73;2.90;;;26.10;37.10;;;;;;5037447;28;20462;-78
2022/05/01 11:45:05;;;;;;;5.40;3.50;;;26.20;36.60;;;;;;5047004;28;20526;-79
2022/05/01 11:47:33;;;;;;;5.57;3.90;;;26.10;35.80;;;;;;5038310;28;20501;-81
2022/05/01 11:50:02;;;;;;;11.03;3.83;;;25.80;35.20;;;;;;5040359;28;20517;-81
2022/05/01 11:52:30;;;;;;;4.97;4.40;;;25.90;34.30;;;;;;5056183;28;20525;-81
2022/05/01 11:54:59;;;;;;;4.30;3.90;;;26.10;31.60;;;;;;5038679;28;20494;-79
2022/05/01 12:03:02;;;;;;;7.77;3.60;;;25.60;31.60;;;;;;5039044;28;20433;-81
2022/05/01 12:05:30;;;;;;;4.13;3.73;;;25.50;31.10;;;;;;5038479;28;20807;-80
2022/05/01 12:07:59;;;;;;;4.10;3.70;;;25.90;31.20;;;;;;5039277;28;20903;-78
2022/05/01 12:10:27;;;;;;;3.60;3.40;;;26.60;30.50;;;;;;5038900;28;20453;-80
2022/05/01 12:12:55;;;;;;;3.90;3.00;;;26.80;29.00;;;;;;5050336;28;20441;-80
2022/05/01 12:15:25;;;;;;;3.10;2.90;;;26.70;30.00;;;;;;5058770;28;20455;-81
2022/05/01 12:17:56;;;;;;;4.37;2.90;;;26.50;30.50;;;;;;5059184;28;20467;-80
2022/05/01 12:20:24;;;;;;;3.47;3.20;;;26.20;30.40;;;;;;5058476;28;20537;-80
2022/05/01 12:22:54;;;;;;;12.50;2.83;;;26.00;30.10;;;;;;5057617;28;20488;-77
2022/05/01 12:25:25;;;;;;;6.47;4.60;;;25.90;30.70;;;;;;5057870;28;20480;-80
2022/05/01 12:27:53;;;;;;;5.43;3.00;;;25.70;30.10;;;;;;5058602;28;20449;-79
2022/05/01 12:30:22;;;;;;;4.73;3.97;;;25.70;30.50;;;;;;5058131;28;20475;-80
2022/05/01 12:32:54;;;;;;;3.10;2.90;;;25.40;30.10;;;;;;5058640;28;20489;-80
2022/05/01 12:35:22;;;;;;;3.50;3.30;;;25.40;30.40;;;;;;5059983;28;20439;-84
2022/05/01 12:37:50;;;;;;;4.27;3.13;;;25.40;30.40;;;;;;5063906;28;20462;-83
2022/05/01 12:43:50;;;;;;;3.70;3.40;;;25.30;30.40;;;;;;5062591;28;20480;-81
2022/05/01 12:46:22;;;;;;;4.30;3.20;;;25.00;30.50;;;;;;5046949;28;20429;-79
2022/05/01 12:48:54;;;;;;;5.07;3.50;;;25.10;30.00;;;;;;5062826;28;20433;-85
2022/05/01 12:51:22;;;;;;;6.43;3.87;;;25.00;29.50;;;;;;5062232;28;20449;-83
2022/05/01 12:53:50;;;;;;;3.73;3.53;;;25.00;29.60;;;;;;5063684;28;20421;-83
2022/05/01 12:56:23;;;;;;;3.37;3.17;;;25.00;28.90;;;;;;5062349;28;20417;-82
2022/05/01 12:58:51;;;;;;;8.60;6.67;;;25.20;28.70;;;;;;5061977;28;20464;-84
2022/05/01 13:01:22;;;;;;;5.80;4.70;;;25.20;28.30;;;;;;5059944;28;20454;-83
2022/05/01 13:03:52;;;;;;;10.20;5.40;;;25.00;28.40;;;;;;5048226;28;20440;-82
2022/05/01 13:06:21;;;;;;;14.20;4.73;;;25.00;28.60;;;;;;5070296;28;20462;-82
2022/05/01 13:09:05;;;;;;;6.07;3.83;;;25.00;28.80;;;;;;5064874;28;20449;-82
2022/05/01 13:11:34;;;;;;;4.50;3.50;;;24.80;28.10;;;;;;5063877;28;20448;-81
2022/05/01 13:14:05;;;;;;;5.13;3.70;;;24.20;28.00;;;;;;5061574;28;20504;-82
2022/05/01 13:16:43;;;;;;;8.30;4.03;;;24.10;28.60;;;;;;5064543;28;20442;-79
2022/05/01 13:19:14;;;;;;;6.33;3.50;;;23.80;29.50;;;;;;5053597;28;20455;-82
2022/05/01 13:21:43;;;;;;;6.00;3.27;;;24.50;29.80;;;;;;5053160;28;20513;-81
2022/05/01 13:24:13;;;;;;;4.93;3.00;;;25.00;29.50;;;;;;5049611;28;20451;-82
2022/05/01 13:26:42;;;;;;;5.30;2.90;;;25.30;29.30;;;;;;5050658;28;20417;-82
2022/05/01 13:29:10;;;;;;;3.43;2.90;;;25.50;29.30;;;;;;5063564;28;20809;-81
2022/05/01 13:31:47;;;;;;;5.60;2.53;;;25.70;29.30;;;;;;5070121;28;20485;-82